sensor_id;sensor_type;location;lat;lon;timestamp;P1;durP1;ratioP1;P2;durP2;ratioP2
29240;SDS011;16268;49.880;8.648;2022-09-14T00:00:52;12.07;;;9.00;;
29240;SDS011;16268;49.880;8.648;2022-09-14T00:03:18;13.57;;;9.15;;
29240;SDS011;16268;49.880;8.648;2022-09-14T00:05:43;12.43;;;8.70;;
29240;SDS011;16268;49.880;8.648;2022-09-14T00:08:10;13.07;;;9.73;;
29240;SDS011;16268;49.880;8.648;2022-09-14T00:10:39;10.23;;;8.80;;
29240;SDS011;16268;49.880;8.648;2022-09-14T00:15:33;12.57;;;9.00;;
29240;SDS011;16268;49.880;8.648;2022-09-14T00:18:03;10.77;;;8.95;;
29240;SDS011;16268;49.880;8.648;2022-09-14T00:20:30;10.77;;;8.60;;
29240;SDS011;16268;49.880;8.648;2022-09-14T00:22:56;11.10;;;8.18;;
29240;SDS011;16268;49.880;8.648;2022-09-14T00:25:22;11.90;;;8.93;;
29240;SDS011;16268;49.880;8.648;2022-09-14T00:27:48;12.32;;;8.23;;
29240;SDS011;16268;49.880;8.648;2022-09-14T00:30:13;13.60;;;8.73;;
29240;SDS011;16268;49.880;8.648;2022-09-14T00:32:39;11.38;;;8.80;;
29240;SDS011;16268;49.880;8.648;2022-09-14T00:35:04;11.07;;;8.32;;
29240;SDS011;16268;49.880;8.648;2022-09-14T00:37:30;11.50;;;8.95;;
29240;SDS011;16268;49.880;8.648;2022-09-14T00:39:56;11.93;;;8.80;;
29240;SDS011;16268;49.880;8.648;2022-09-14T00:42:22;10.80;;;7.95;;
29240;SDS011;16268;49.880;8.648;2022-09-14T00:47:13;11.57;;;8.45;;
29240;SDS011;16268;49.880;8.648;2022-09-14T00:49:41;13.05;;;9.35;;
29240;SDS011;16268;49.880;8.648;2022-09-14T00:52:15;12.25;;;8.82;;
29240;SDS011;16268;49.880;8.648;2022-09-14T00:54:47;11.93;;;9.18;;
29240;SDS011;16268;49.880;8.648;2022-09-14T00:57:16;13.63;;;9.55;;
29240;SDS011;16268;49.880;8.648;2022-09-14T00:59:43;12.70;;;9.52;;
29240;SDS011;16268;49.880;8.648;2022-09-14T01:02:10;12.13;;;8.73;;
29240;SDS011;16268;49.880;8.648;2022-09-14T01:04:38;15.35;;;10.35;;
29240;SDS011;16268;49.880;8.648;2022-09-14T01:07:11;12.32;;;9.55;;
29240;SDS011;16268;49.880;8.648;2022-09-14T01:09:44;12.82;;;10.15;;
29240;SDS011;16268;49.880;8.648;2022-09-14T01:14:59;13.48;;;9.85;;
29240;SDS011;16268;49.880;8.648;2022-09-14T01:17:51;12.52;;;9.77;;
29240;SDS011;16268;49.880;8.648;2022-09-14T01:20:46;13.27;;;10.13;;
29240;SDS011;16268;49.880;8.648;2022-09-14T01:23:32;12.05;;;9.65;;
29240;SDS011;16268;49.880;8.648;2022-09-14T01:26:05;11.80;;;9.52;;
29240;SDS011;16268;49.880;8.648;2022-09-14T01:34:22;11.80;;;9.18;;
29240;SDS011;16268;49.880;8.648;2022-09-14T01:36:49;12.48;;;9.40;;
29240;SDS011;16268;49.880;8.648;2022-09-14T01:39:22;12.10;;;9.05;;
29240;SDS011;16268;49.880;8.648;2022-09-14T01:41:48;14.15;;;9.35;;
29240;SDS011;16268;49.880;8.648;2022-09-14T01:44:17;12.20;;;9.32;;
29240;SDS011;16268;49.880;8.648;2022-09-14T01:46:54;12.93;;;9.40;;
29240;SDS011;16268;49.880;8.648;2022-09-14T01:49:29;11.88;;;9.02;;
29240;SDS011;16268;49.880;8.648;2022-09-14T01:52:49;13.90;;;9.43;;
29240;SDS011;16268;49.880;8.648;2022-09-14T01:54:53;12.60;;;10.20;;
29240;SDS011;16268;49.880;8.648;2022-09-14T01:57:21;12.57;;;9.70;;
29240;SDS011;16268;49.880;8.648;2022-09-14T01:59:57;13.48;;;9.82;;
29240;SDS011;16268;49.880;8.648;2022-09-14T02:05:04;12.70;;;9.40;;
29240;SDS011;16268;49.880;8.648;2022-09-14T02:07:36;12.20;;;8.52;;
29240;SDS011;16268;49.880;8.648;2022-09-14T02:10:03;12.63;;;9.25;;
29240;SDS011;16268;49.880;8.648;2022-09-14T02:12:32;12.07;;;9.40;;
29240;SDS011;16268;49.880;8.648;2022-09-14T02:14:58;12.10;;;9.00;;
29240;SDS011;16268;49.880;8.648;2022-09-14T02:17:24;13.82;;;10.00;;
29240;SDS011;16268;49.880;8.648;2022-09-14T02:19:56;13.73;;;9.35;;
29240;SDS011;16268;49.880;8.648;2022-09-14T02:22:25;15.10;;;9.88;;
29240;SDS011;16268;49.880;8.648;2022-09-14T02:24:53;14.35;;;10.15;;
29240;SDS011;16268;49.880;8.648;2022-09-14T02:27:19;13.45;;;9.77;;
29240;SDS011;16268;49.880;8.648;2022-09-14T02:29:45;14.20;;;9.38;;
29240;SDS011;16268;49.880;8.648;2022-09-14T02:40:50;11.57;;;8.00;;
29240;SDS011;16268;49.880;8.648;2022-09-14T02:46:22;11.90;;;8.65;;
29240;SDS011;16268;49.880;8.648;2022-09-14T02:51:41;12.30;;;8.63;;
29240;SDS011;16268;49.880;8.648;2022-09-14T02:54:18;11.38;;;8.48;;
29240;SDS011;16268;49.880;8.648;2022-09-14T02:56:58;11.75;;;8.70;;
29240;SDS011;16268;49.880;8.648;2022-09-14T02:59:24;12.82;;;9.43;;
29240;SDS011;16268;49.880;8.648;2022-09-14T03:01:50;12.35;;;8.80;;
29240;SDS011;16268;49.880;8.648;2022-09-14T03:04:16;11.93;;;9.05;;
29240;SDS011;16268;49.880;8.648;2022-09-14T03:06:41;11.63;;;8.60;;
29240;SDS011;16268;49.880;8.648;2022-09-14T03:09:07;11.25;;;8.20;;
29240;SDS011;16268;49.880;8.648;2022-09-14T03:11:32;10.55;;;9.15;;
29240;SDS011;16268;49.880;8.648;2022-09-14T03:13:58;11.23;;;8.25;;
29240;SDS011;16268;49.880;8.648;2022-09-14T03:16:23;10.20;;;8.43;;
29240;SDS011;16268;49.880;8.648;2022-09-14T03:18:49;11.52;;;8.55;;
29240;SDS011;16268;49.880;8.648;2022-09-14T03:21:15;12.10;;;8.60;;
29240;SDS011;16268;49.880;8.648;2022-09-14T03:23:48;11.00;;;8.32;;
29240;SDS011;16268;49.880;8.648;2022-09-14T03:26:17;9.75;;;8.20;;
29240;SDS011;16268;49.880;8.648;2022-09-14T03:28:44;10.80;;;8.35;;
29240;SDS011;16268;49.880;8.648;2022-09-14T03:33:39;11.52;;;8.35;;
29240;SDS011;16268;49.880;8.648;2022-09-14T03:36:12;12.20;;;8.27;;
29240;SDS011;16268;49.880;8.648;2022-09-14T03:38:43;11.80;;;7.95;;
29240;SDS011;16268;49.880;8.648;2022-09-14T03:41:09;10.75;;;8.40;;
29240;SDS011;16268;49.880;8.648;2022-09-14T03:43:35;11.40;;;8.02;;
29240;SDS011;16268;49.880;8.648;2022-09-14T03:46:05;10.20;;;7.25;;
29240;SDS011;16268;49.880;8.648;2022-09-14T03:48:32;13.68;;;8.02;;
29240;SDS011;16268;49.880;8.648;2022-09-14T03:51:04;10.20;;;7.00;;
29240;SDS011;16268;49.880;8.648;2022-09-14T03:53:31;10.85;;;7.13;;
29240;SDS011;16268;49.880;8.648;2022-09-14T03:55:57;11.07;;;7.45;;
29240;SDS011;16268;49.880;8.648;2022-09-14T03:58:23;12.00;;;8.35;;
29240;SDS011;16268;49.880;8.648;2022-09-14T04:00:49;10.75;;;8.13;;
29240;SDS011;16268;49.880;8.648;2022-09-14T04:03:15;12.07;;;8.60;;
29240;SDS011;16268;49.880;8.648;2022-09-14T04:05:41;11.98;;;8.20;;
29240;SDS011;16268;49.880;8.648;2022-09-14T04:08:06;12.35;;;8.52;;
29240;SDS011;16268;49.880;8.648;2022-09-14T04:10:32;11.50;;;8.43;;
29240;SDS011;16268;49.880;8.648;2022-09-14T04:12:58;16.25;;;9.18;;
29240;SDS011;16268;49.880;8.648;2022-09-14T04:15:25;12.57;;;8.50;;
29240;SDS011;16268;49.880;8.648;2022-09-14T04:17:52;12.63;;;9.55;;
29240;SDS011;16268;49.880;8.648;2022-09-14T04:20:17;11.70;;;8.75;;
29240;SDS011;16268;49.880;8.648;2022-09-14T04:22:43;11.80;;;9.10;;
29240;SDS011;16268;49.880;8.648;2022-09-14T04:25:09;12.52;;;8.95;;
29240;SDS011;16268;49.880;8.648;2022-09-14T04:27:35;12.02;;;9.30;;
29240;SDS011;16268;49.880;8.648;2022-09-14T04:30:01;15.15;;;10.07;;
29240;SDS011;16268;49.880;8.648;2022-09-14T04:32:28;11.52;;;9.45;;
29240;SDS011;16268;49.880;8.648;2022-09-14T04:34:53;12.27;;;9.35;;
29240;SDS011;16268;49.880;8.648;2022-09-14T04:37:19;11.60;;;9.23;;
29240;SDS011;16268;49.880;8.648;2022-09-14T04:39:45;13.52;;;9.20;;
29240;SDS011;16268;49.880;8.648;2022-09-14T04:42:10;13.98;;;9.63;;
29240;SDS011;16268;49.880;8.648;2022-09-14T04:44:36;12.43;;;8.73;;
29240;SDS011;16268;49.880;8.648;2022-09-14T04:47:01;12.10;;;9.10;;
29240;SDS011;16268;49.880;8.648;2022-09-14T04:49:27;12.38;;;9.32;;
29240;SDS011;16268;49.880;8.648;2022-09-14T04:51:53;11.88;;;8.82;;
29240;SDS011;16268;49.880;8.648;2022-09-14T04:54:18;12.23;;;8.13;;
29240;SDS011;16268;49.880;8.648;2022-09-14T04:56:44;16.23;;;13.50;;
29240;SDS011;16268;49.880;8.648;2022-09-14T04:59:10;12.55;;;9.60;;
29240;SDS011;16268;49.880;8.648;2022-09-14T05:01:37;9.60;;;8.02;;
29240;SDS011;16268;49.880;8.648;2022-09-14T05:04:05;11.38;;;8.85;;
29240;SDS011;16268;49.880;8.648;2022-09-14T05:06:32;11.98;;;9.20;;
29240;SDS011;16268;49.880;8.648;2022-09-14T05:08:59;8.68;;;6.50;;
29240;SDS011;16268;49.880;8.648;2022-09-14T05:11:27;8.63;;;5.95;;
29240;SDS011;16268;49.880;8.648;2022-09-14T05:13:59;8.07;;;5.50;;
29240;SDS011;16268;49.880;8.648;2022-09-14T05:16:26;6.95;;;4.57;;
29240;SDS011;16268;49.880;8.648;2022-09-14T05:19:00;7.63;;;4.82;;
29240;SDS011;16268;49.880;8.648;2022-09-14T05:21:28;7.07;;;4.55;;
29240;SDS011;16268;49.880;8.648;2022-09-14T05:23:56;6.05;;;4.13;;
29240;SDS011;16268;49.880;8.648;2022-09-14T05:26:24;7.35;;;4.63;;
29240;SDS011;16268;49.880;8.648;2022-09-14T05:28:52;5.93;;;3.83;;
29240;SDS011;16268;49.880;8.648;2022-09-14T05:31:19;6.10;;;4.15;;
29240;SDS011;16268;49.880;8.648;2022-09-14T05:33:45;6.53;;;4.40;;
29240;SDS011;16268;49.880;8.648;2022-09-14T05:36:11;8.95;;;5.78;;
29240;SDS011;16268;49.880;8.648;2022-09-14T05:38:37;7.45;;;4.43;;
29240;SDS011;16268;49.880;8.648;2022-09-14T05:41:04;5.18;;;3.53;;
29240;SDS011;16268;49.880;8.648;2022-09-14T05:43:30;6.75;;;4.30;;
29240;SDS011;16268;49.880;8.648;2022-09-14T05:46:00;6.75;;;3.50;;
29240;SDS011;16268;49.880;8.648;2022-09-14T05:48:30;5.00;;;2.92;;
29240;SDS011;16268;49.880;8.648;2022-09-14T05:51:01;6.70;;;3.58;;
29240;SDS011;16268;49.880;8.648;2022-09-14T05:53:28;4.95;;;2.80;;
29240;SDS011;16268;49.880;8.648;2022-09-14T05:56:04;4.60;;;3.13;;
29240;SDS011;16268;49.880;8.648;2022-09-14T05:58:31;5.38;;;2.97;;
29240;SDS011;16268;49.880;8.648;2022-09-14T06:00:58;4.75;;;3.25;;
29240;SDS011;16268;49.880;8.648;2022-09-14T06:03:29;5.63;;;2.47;;
29240;SDS011;16268;49.880;8.648;2022-09-14T06:05:56;4.63;;;2.85;;
29240;SDS011;16268;49.880;8.648;2022-09-14T06:08:22;5.15;;;3.30;;
29240;SDS011;16268;49.880;8.648;2022-09-14T06:10:48;5.25;;;3.38;;
29240;SDS011;16268;49.880;8.648;2022-09-14T06:13:13;7.20;;;3.60;;
29240;SDS011;16268;49.880;8.648;2022-09-14T06:15:39;5.93;;;3.42;;
29240;SDS011;16268;49.880;8.648;2022-09-14T06:18:05;6.95;;;3.30;;
29240;SDS011;16268;49.880;8.648;2022-09-14T06:20:30;6.28;;;3.33;;
29240;SDS011;16268;49.880;8.648;2022-09-14T06:22:56;4.57;;;3.03;;
29240;SDS011;16268;49.880;8.648;2022-09-14T06:25:21;5.60;;;3.58;;
29240;SDS011;16268;49.880;8.648;2022-09-14T06:27:47;7.47;;;3.80;;
29240;SDS011;16268;49.880;8.648;2022-09-14T06:30:13;5.47;;;3.72;;
29240;SDS011;16268;49.880;8.648;2022-09-14T06:32:40;6.97;;;4.10;;
29240;SDS011;16268;49.880;8.648;2022-09-14T06:35:06;6.07;;;3.78;;
29240;SDS011;16268;49.880;8.648;2022-09-14T06:37:32;6.05;;;3.50;;
29240;SDS011;16268;49.880;8.648;2022-09-14T06:39:57;6.85;;;4.00;;
29240;SDS011;16268;49.880;8.648;2022-09-14T06:42:23;5.85;;;3.78;;
29240;SDS011;16268;49.880;8.648;2022-09-14T06:44:48;7.25;;;3.78;;
29240;SDS011;16268;49.880;8.648;2022-09-14T06:47:14;6.60;;;3.50;;
29240;SDS011;16268;49.880;8.648;2022-09-14T06:49:39;6.93;;;3.90;;
29240;SDS011;16268;49.880;8.648;2022-09-14T06:52:05;6.20;;;3.95;;
29240;SDS011;16268;49.880;8.648;2022-09-14T06:54:30;6.22;;;3.88;;
29240;SDS011;16268;49.880;8.648;2022-09-14T06:56:56;6.40;;;3.92;;
29240;SDS011;16268;49.880;8.648;2022-09-14T06:59:22;7.45;;;4.10;;
29240;SDS011;16268;49.880;8.648;2022-09-14T07:01:47;6.65;;;3.63;;
29240;SDS011;16268;49.880;8.648;2022-09-14T07:04:13;6.85;;;3.97;;
29240;SDS011;16268;49.880;8.648;2022-09-14T07:11:35;6.03;;;3.70;;
29240;SDS011;16268;49.880;8.648;2022-09-14T07:14:02;8.18;;;3.75;;
29240;SDS011;16268;49.880;8.648;2022-09-14T07:16:28;7.32;;;3.67;;
29240;SDS011;16268;49.880;8.648;2022-09-14T07:18:56;8.05;;;3.65;;
29240;SDS011;16268;49.880;8.648;2022-09-14T07:21:23;7.65;;;4.20;;
29240;SDS011;16268;49.880;8.648;2022-09-14T07:23:50;6.93;;;4.00;;
29240;SDS011;16268;49.880;8.648;2022-09-14T07:26:17;10.02;;;4.30;;
29240;SDS011;16268;49.880;8.648;2022-09-14T07:28:45;7.13;;;4.00;;
29240;SDS011;16268;49.880;8.648;2022-09-14T07:31:18;6.63;;;4.40;;
29240;SDS011;16268;49.880;8.648;2022-09-14T07:33:59;7.45;;;4.22;;
29240;SDS011;16268;49.880;8.648;2022-09-14T07:36:27;9.15;;;4.13;;
29240;SDS011;16268;49.880;8.648;2022-09-14T07:38:53;6.93;;;3.97;;
29240;SDS011;16268;49.880;8.648;2022-09-14T07:41:19;7.22;;;3.90;;
29240;SDS011;16268;49.880;8.648;2022-09-14T07:43:47;7.72;;;3.58;;
29240;SDS011;16268;49.880;8.648;2022-09-14T07:46:16;4.78;;;3.17;;
29240;SDS011;16268;49.880;8.648;2022-09-14T07:48:42;4.97;;;2.90;;
29240;SDS011;16268;49.880;8.648;2022-09-14T07:51:09;7.38;;;3.65;;
29240;SDS011;16268;49.880;8.648;2022-09-14T07:53:36;6.50;;;3.00;;
29240;SDS011;16268;49.880;8.648;2022-09-14T07:56:03;5.78;;;3.33;;
29240;SDS011;16268;49.880;8.648;2022-09-14T07:58:30;4.97;;;2.83;;
29240;SDS011;16268;49.880;8.648;2022-09-14T08:00:59;4.88;;;2.30;;
29240;SDS011;16268;49.880;8.648;2022-09-14T08:03:25;4.90;;;2.50;;
29240;SDS011;16268;49.880;8.648;2022-09-14T08:06:02;5.53;;;2.45;;
29240;SDS011;16268;49.880;8.648;2022-09-14T08:08:30;6.25;;;2.60;;
29240;SDS011;16268;49.880;8.648;2022-09-14T08:11:10;5.35;;;2.40;;
29240;SDS011;16268;49.880;8.648;2022-09-14T08:13:40;5.15;;;2.25;;
29240;SDS011;16268;49.880;8.648;2022-09-14T08:16:08;4.85;;;2.50;;
29240;SDS011;16268;49.880;8.648;2022-09-14T08:18:34;4.57;;;2.50;;
29240;SDS011;16268;49.880;8.648;2022-09-14T08:21:04;6.15;;;2.80;;
29240;SDS011;16268;49.880;8.648;2022-09-14T08:23:32;5.32;;;2.72;;
29240;SDS011;16268;49.880;8.648;2022-09-14T08:26:05;5.65;;;2.97;;
29240;SDS011;16268;49.880;8.648;2022-09-14T08:28:35;7.10;;;3.50;;
29240;SDS011;16268;49.880;8.648;2022-09-14T08:31:03;5.57;;;3.38;;
29240;SDS011;16268;49.880;8.648;2022-09-14T08:33:31;6.68;;;3.85;;
29240;SDS011;16268;49.880;8.648;2022-09-14T08:35:57;8.25;;;3.60;;
29240;SDS011;16268;49.880;8.648;2022-09-14T08:38:23;5.55;;;3.97;;
29240;SDS011;16268;49.880;8.648;2022-09-14T08:40:49;6.28;;;3.75;;
29240;SDS011;16268;49.880;8.648;2022-09-14T08:43:15;6.28;;;4.47;;
29240;SDS011;16268;49.880;8.648;2022-09-14T08:45:43;7.35;;;5.07;;
29240;SDS011;16268;49.880;8.648;2022-09-14T08:48:19;8.88;;;5.60;;
29240;SDS011;16268;49.880;8.648;2022-09-14T08:50:52;9.48;;;6.70;;
29240;SDS011;16268;49.880;8.648;2022-09-14T08:53:21;8.80;;;6.55;;
29240;SDS011;16268;49.880;8.648;2022-09-14T08:55:48;9.10;;;6.78;;
29240;SDS011;16268;49.880;8.648;2022-09-14T08:58:36;11.18;;;7.47;;
29240;SDS011;16268;49.880;8.648;2022-09-14T09:04:24;10.65;;;8.30;;
29240;SDS011;16268;49.880;8.648;2022-09-14T09:10:12;10.35;;;8.48;;
29240;SDS011;16268;49.880;8.648;2022-09-14T09:12:41;11.68;;;9.02;;
29240;SDS011;16268;49.880;8.648;2022-09-14T09:15:19;10.93;;;8.93;;
29240;SDS011;16268;49.880;8.648;2022-09-14T09:17:46;10.82;;;8.35;;
29240;SDS011;16268;49.880;8.648;2022-09-14T09:20:34;10.55;;;9.10;;
29240;SDS011;16268;49.880;8.648;2022-09-14T09:23:07;12.05;;;9.15;;
29240;SDS011;16268;49.880;8.648;2022-09-14T09:25:46;11.50;;;10.00;;
29240;SDS011;16268;49.880;8.648;2022-09-14T09:28:23;13.27;;;10.18;;
29240;SDS011;16268;49.880;8.648;2022-09-14T09:30:51;12.05;;;10.30;;
29240;SDS011;16268;49.880;8.648;2022-09-14T09:33:19;11.85;;;8.85;;
29240;SDS011;16268;49.880;8.648;2022-09-14T09:35:47;13.15;;;9.45;;
29240;SDS011;16268;49.880;8.648;2022-09-14T09:38:15;12.40;;;9.07;;
29240;SDS011;16268;49.880;8.648;2022-09-14T09:40:45;10.65;;;8.63;;
29240;SDS011;16268;49.880;8.648;2022-09-14T09:43:15;12.52;;;9.02;;
29240;SDS011;16268;49.880;8.648;2022-09-14T09:46:04;11.82;;;9.45;;
29240;SDS011;16268;49.880;8.648;2022-09-14T09:48:41;12.20;;;9.60;;
29240;SDS011;16268;49.880;8.648;2022-09-14T09:54:07;10.43;;;8.63;;
29240;SDS011;16268;49.880;8.648;2022-09-14T09:56:37;11.93;;;9.27;;
29240;SDS011;16268;49.880;8.648;2022-09-14T09:59:21;12.15;;;9.80;;
29240;SDS011;16268;49.880;8.648;2022-09-14T10:01:53;12.30;;;8.88;;
29240;SDS011;16268;49.880;8.648;2022-09-14T10:04:21;12.43;;;8.95;;
29240;SDS011;16268;49.880;8.648;2022-09-14T10:06:52;10.85;;;8.70;;
29240;SDS011;16268;49.880;8.648;2022-09-14T10:09:19;10.68;;;8.13;;
29240;SDS011;16268;49.880;8.648;2022-09-14T10:11:47;11.18;;;8.05;;
29240;SDS011;16268;49.880;8.648;2022-09-14T10:14:32;10.48;;;7.40;;
29240;SDS011;16268;49.880;8.648;2022-09-14T10:17:04;8.68;;;6.90;;
29240;SDS011;16268;49.880;8.648;2022-09-14T10:19:47;12.15;;;7.30;;
29240;SDS011;16268;49.880;8.648;2022-09-14T10:22:25;10.02;;;7.95;;
29240;SDS011;16268;49.880;8.648;2022-09-14T10:25:18;12.20;;;8.27;;
29240;SDS011;16268;49.880;8.648;2022-09-14T10:30:21;10.02;;;6.00;;
29240;SDS011;16268;49.880;8.648;2022-09-14T10:35:48;12.07;;;7.82;;
29240;SDS011;16268;49.880;8.648;2022-09-14T10:38:30;13.80;;;8.10;;
29240;SDS011;16268;49.880;8.648;2022-09-14T10:46:31;10.00;;;8.07;;
29240;SDS011;16268;49.880;8.648;2022-09-14T10:49:22;12.50;;;8.98;;
29240;SDS011;16268;49.880;8.648;2022-09-14T10:51:55;12.45;;;9.57;;
29240;SDS011;16268;49.880;8.648;2022-09-14T11:00:42;13.30;;;9.65;;
29240;SDS011;16268;49.880;8.648;2022-09-14T11:03:28;13.52;;;8.90;;
29240;SDS011;16268;49.880;8.648;2022-09-14T11:08:59;11.80;;;8.93;;
29240;SDS011;16268;49.880;8.648;2022-09-14T11:14:25;13.18;;;9.85;;
29240;SDS011;16268;49.880;8.648;2022-09-14T11:17:26;11.95;;;9.02;;
29240;SDS011;16268;49.880;8.648;2022-09-14T11:20:19;14.48;;;10.38;;
29240;SDS011;16268;49.880;8.648;2022-09-14T11:25:21;11.50;;;9.30;;
29240;SDS011;16268;49.880;8.648;2022-09-14T11:27:52;13.75;;;9.23;;
29240;SDS011;16268;49.880;8.648;2022-09-14T11:30:32;14.98;;;10.90;;
29240;SDS011;16268;49.880;8.648;2022-09-14T11:33:06;13.10;;;9.35;;
29240;SDS011;16268;49.880;8.648;2022-09-14T11:35:44;12.80;;;8.77;;
29240;SDS011;16268;49.880;8.648;2022-09-14T11:38:34;15.98;;;9.52;;
29240;SDS011;16268;49.880;8.648;2022-09-14T11:41:13;13.25;;;9.20;;
29240;SDS011;16268;49.880;8.648;2022-09-14T11:46:37;16.90;;;9.75;;
29240;SDS011;16268;49.880;8.648;2022-09-14T11:54:39;13.50;;;9.18;;
29240;SDS011;16268;49.880;8.648;2022-09-14T11:57:05;10.15;;;7.75;;
29240;SDS011;16268;49.880;8.648;2022-09-14T12:12:43;12.45;;;8.57;;
29240;SDS011;16268;49.880;8.648;2022-09-14T12:15:11;11.95;;;8.20;;
29240;SDS011;16268;49.880;8.648;2022-09-14T12:17:41;11.45;;;7.22;;
29240;SDS011;16268;49.880;8.648;2022-09-14T12:40:56;11.50;;;8.35;;
29240;SDS011;16268;49.880;8.648;2022-09-14T12:53:43;13.77;;;9.15;;
29240;SDS011;16268;49.880;8.648;2022-09-14T12:56:13;15.40;;;9.73;;
29240;SDS011;16268;49.880;8.648;2022-09-14T13:01:34;14.57;;;9.27;;
29240;SDS011;16268;49.880;8.648;2022-09-14T13:04:02;13.35;;;9.10;;
29240;SDS011;16268;49.880;8.648;2022-09-14T13:06:32;15.40;;;10.77;;
29240;SDS011;16268;49.880;8.648;2022-09-14T13:09:22;13.30;;;9.45;;
29240;SDS011;16268;49.880;8.648;2022-09-14T13:11:57;12.85;;;8.50;;
29240;SDS011;16268;49.880;8.648;2022-09-14T13:16:59;18.52;;;10.95;;
29240;SDS011;16268;49.880;8.648;2022-09-14T13:19:31;19.07;;;11.53;;
29240;SDS011;16268;49.880;8.648;2022-09-14T13:21:59;17.40;;;12.60;;
29240;SDS011;16268;49.880;8.648;2022-09-14T13:26:53;22.02;;;15.32;;
29240;SDS011;16268;49.880;8.648;2022-09-14T13:29:20;18.08;;;13.52;;
29240;SDS011;16268;49.880;8.648;2022-09-14T13:31:46;21.20;;;15.73;;
29240;SDS011;16268;49.880;8.648;2022-09-14T13:34:19;22.80;;;15.05;;
29240;SDS011;16268;49.880;8.648;2022-09-14T13:36:47;20.10;;;14.30;;
29240;SDS011;16268;49.880;8.648;2022-09-14T13:39:24;20.30;;;14.63;;
29240;SDS011;16268;49.880;8.648;2022-09-14T13:41:54;21.00;;;13.18;;
29240;SDS011;16268;49.880;8.648;2022-09-14T13:44:53;19.83;;;14.32;;
29240;SDS011;16268;49.880;8.648;2022-09-14T13:47:14;17.88;;;12.98;;
29240;SDS011;16268;49.880;8.648;2022-09-14T13:49:43;20.20;;;13.95;;
29240;SDS011;16268;49.880;8.648;2022-09-14T13:54:54;16.05;;;12.07;;
29240;SDS011;16268;49.880;8.648;2022-09-14T13:57:34;14.95;;;11.95;;
29240;SDS011;16268;49.880;8.648;2022-09-14T14:00:19;17.05;;;12.70;;
29240;SDS011;16268;49.880;8.648;2022-09-14T14:02:51;18.45;;;12.43;;
29240;SDS011;16268;49.880;8.648;2022-09-14T14:05:23;15.13;;;11.75;;
29240;SDS011;16268;49.880;8.648;2022-09-14T14:08:00;15.00;;;11.88;;
29240;SDS011;16268;49.880;8.648;2022-09-14T14:10:38;14.88;;;11.40;;
29240;SDS011;16268;49.880;8.648;2022-09-14T14:13:09;17.20;;;12.63;;
29240;SDS011;16268;49.880;8.648;2022-09-14T14:15:35;16.88;;;13.02;;
29240;SDS011;16268;49.880;8.648;2022-09-14T14:21:03;19.23;;;13.30;;
29240;SDS011;16268;49.880;8.648;2022-09-14T14:23:53;17.77;;;13.15;;
29240;SDS011;16268;49.880;8.648;2022-09-14T14:26:46;17.45;;;13.30;;
29240;SDS011;16268;49.880;8.648;2022-09-14T14:29:13;20.55;;;15.45;;
29240;SDS011;16268;49.880;8.648;2022-09-14T14:31:40;18.35;;;12.20;;
29240;SDS011;16268;49.880;8.648;2022-09-14T14:34:10;20.05;;;13.98;;
29240;SDS011;16268;49.880;8.648;2022-09-14T14:36:45;18.40;;;13.95;;
29240;SDS011;16268;49.880;8.648;2022-09-14T14:39:13;17.90;;;13.68;;
29240;SDS011;16268;49.880;8.648;2022-09-14T14:44:10;19.20;;;13.70;;
29240;SDS011;16268;49.880;8.648;2022-09-14T14:46:39;18.50;;;13.88;;
29240;SDS011;16268;49.880;8.648;2022-09-14T14:49:07;22.10;;;13.80;;
29240;SDS011;16268;49.880;8.648;2022-09-14T14:54:01;20.63;;;14.43;;
29240;SDS011;16268;49.880;8.648;2022-09-14T14:56:27;19.50;;;14.75;;
29240;SDS011;16268;49.880;8.648;2022-09-14T14:58:52;19.42;;;15.70;;
29240;SDS011;16268;49.880;8.648;2022-09-14T15:01:18;19.00;;;14.82;;
29240;SDS011;16268;49.880;8.648;2022-09-14T15:03:43;18.08;;;13.88;;
29240;SDS011;16268;49.880;8.648;2022-09-14T15:06:13;16.60;;;12.45;;
29240;SDS011;16268;49.880;8.648;2022-09-14T15:08:43;20.08;;;13.82;;
29240;SDS011;16268;49.880;8.648;2022-09-14T15:11:13;22.15;;;15.32;;
29240;SDS011;16268;49.880;8.648;2022-09-14T15:13:40;19.52;;;14.35;;
29240;SDS011;16268;49.880;8.648;2022-09-14T15:16:06;18.10;;;13.32;;
29240;SDS011;16268;49.880;8.648;2022-09-14T15:18:31;20.63;;;11.52;;
29240;SDS011;16268;49.880;8.648;2022-09-14T15:20:57;9.55;;;6.18;;
29240;SDS011;16268;49.880;8.648;2022-09-14T15:23:23;7.80;;;4.30;;
29240;SDS011;16268;49.880;8.648;2022-09-14T15:25:51;7.88;;;2.97;;
29240;SDS011;16268;49.880;8.648;2022-09-14T15:28:17;6.15;;;2.60;;
29240;SDS011;16268;49.880;8.648;2022-09-14T15:30:43;4.60;;;2.53;;
29240;SDS011;16268;49.880;8.648;2022-09-14T15:33:09;5.80;;;2.25;;
29240;SDS011;16268;49.880;8.648;2022-09-14T15:35:35;5.53;;;1.90;;
29240;SDS011;16268;49.880;8.648;2022-09-14T15:38:00;5.95;;;2.17;;
29240;SDS011;16268;49.880;8.648;2022-09-14T15:40:26;3.70;;;1.88;;
29240;SDS011;16268;49.880;8.648;2022-09-14T15:42:51;4.03;;;1.70;;
29240;SDS011;16268;49.880;8.648;2022-09-14T15:45:17;5.82;;;2.10;;
29240;SDS011;16268;49.880;8.648;2022-09-14T15:47:43;3.90;;;1.85;;
29240;SDS011;16268;49.880;8.648;2022-09-14T15:50:10;6.60;;;2.05;;
29240;SDS011;16268;49.880;8.648;2022-09-14T15:52:36;3.45;;;1.40;;
29240;SDS011;16268;49.880;8.648;2022-09-14T15:55:04;6.30;;;1.90;;
29240;SDS011;16268;49.880;8.648;2022-09-14T15:57:31;5.53;;;1.80;;
29240;SDS011;16268;49.880;8.648;2022-09-14T15:59:57;5.00;;;2.40;;
29240;SDS011;16268;49.880;8.648;2022-09-14T16:02:23;3.63;;;1.70;;
29240;SDS011;16268;49.880;8.648;2022-09-14T16:04:48;4.38;;;1.75;;
29240;SDS011;16268;49.880;8.648;2022-09-14T16:07:14;3.70;;;1.60;;
29240;SDS011;16268;49.880;8.648;2022-09-14T16:09:40;7.57;;;2.03;;
29240;SDS011;16268;49.880;8.648;2022-09-14T16:12:07;5.05;;;2.20;;
29240;SDS011;16268;49.880;8.648;2022-09-14T16:14:34;5.32;;;2.10;;
29240;SDS011;16268;49.880;8.648;2022-09-14T16:16:59;4.65;;;2.00;;
29240;SDS011;16268;49.880;8.648;2022-09-14T16:19:25;5.53;;;2.17;;
29240;SDS011;16268;49.880;8.648;2022-09-14T16:21:51;6.03;;;2.00;;
29240;SDS011;16268;49.880;8.648;2022-09-14T16:24:17;5.15;;;1.83;;
29240;SDS011;16268;49.880;8.648;2022-09-14T16:26:44;6.10;;;2.10;;
29240;SDS011;16268;49.880;8.648;2022-09-14T16:29:11;6.30;;;2.35;;
29240;SDS011;16268;49.880;8.648;2022-09-14T16:31:39;4.85;;;2.47;;
29240;SDS011;16268;49.880;8.648;2022-09-14T16:34:07;4.63;;;1.80;;
29240;SDS011;16268;49.880;8.648;2022-09-14T16:36:40;5.50;;;1.88;;
29240;SDS011;16268;49.880;8.648;2022-09-14T16:39:09;7.57;;;3.00;;
29240;SDS011;16268;49.880;8.648;2022-09-14T16:41:38;5.80;;;2.40;;
29240;SDS011;16268;49.880;8.648;2022-09-14T16:44:05;6.43;;;2.50;;
29240;SDS011;16268;49.880;8.648;2022-09-14T16:46:33;6.72;;;2.50;;
29240;SDS011;16268;49.880;8.648;2022-09-14T16:48:59;6.78;;;2.65;;
29240;SDS011;16268;49.880;8.648;2022-09-14T16:51:25;4.65;;;2.00;;
29240;SDS011;16268;49.880;8.648;2022-09-14T16:53:52;12.15;;;3.83;;
29240;SDS011;16268;49.880;8.648;2022-09-14T16:56:22;5.30;;;2.13;;
29240;SDS011;16268;49.880;8.648;2022-09-14T16:58:50;7.10;;;2.33;;
29240;SDS011;16268;49.880;8.648;2022-09-14T17:01:18;4.40;;;1.95;;
29240;SDS011;16268;49.880;8.648;2022-09-14T17:04:04;4.40;;;1.75;;
29240;SDS011;16268;49.880;8.648;2022-09-14T17:06:39;4.32;;;2.00;;
29240;SDS011;16268;49.880;8.648;2022-09-14T17:09:08;6.40;;;2.22;;
29240;SDS011;16268;49.880;8.648;2022-09-14T17:11:42;5.63;;;2.40;;
29240;SDS011;16268;49.880;8.648;2022-09-14T17:14:12;3.85;;;1.70;;
29240;SDS011;16268;49.880;8.648;2022-09-14T17:16:39;5.47;;;1.85;;